createdAt,value
2019-06-08T00:00:06.166Z,1004.19
2019-06-08T00:00:42.011Z,1004.13
2019-06-08T00:01:18.416Z,1004.13
2019-06-08T00:01:52.929Z,1004.18
2019-06-08T00:02:28.492Z,1004.14
2019-06-08T00:03:03.729Z,1004.23
2019-06-08T00:03:38.941Z,1004.08
2019-06-08T00:04:14.437Z,1004.11
2019-06-08T00:04:49.671Z,1004.13
2019-06-08T00:05:25.298Z,1004.10
2019-06-08T00:06:00.802Z,1004.10
2019-06-08T00:06:36.333Z,1004.13
2019-06-08T00:07:13.002Z,1004.02
2019-06-08T00:07:46.951Z,1004.08
2019-06-08T00:08:23.028Z,1004.07
2019-06-08T00:08:57.753Z,1004.06
2019-06-08T00:09:33.102Z,1004.07
2019-06-08T00:10:08.839Z,1004.05
2019-06-08T00:10:44.426Z,1004.01
2019-06-08T00:11:21.042Z,1004.07
2019-06-08T00:11:55.948Z,1004.01
2019-06-08T00:12:31.480Z,1004.06
2019-06-08T00:13:07.256Z,1004.02
2019-06-08T00:13:42.543Z,1003.99
2019-06-08T00:14:19.183Z,1004.15
2019-06-08T00:14:53.586Z,1003.97
2019-06-08T00:15:28.850Z,1004.02
2019-06-08T00:16:04.586Z,1004.02
2019-06-08T00:16:39.963Z,1004.08
2019-06-08T00:17:31.445Z,1004.06
2019-06-08T00:17:50.628Z,1004.00
2019-06-08T00:18:25.821Z,1004.05
2019-06-08T00:19:01.242Z,1004.14
2019-06-08T00:19:36.584Z,1004.06
2019-06-08T00:20:13.329Z,1004.06
2019-06-08T00:20:47.318Z,1004.11
2019-06-08T00:21:23.904Z,1004.09
2019-06-08T00:21:58.213Z,1004.06
2019-06-08T00:22:33.701Z,1004.07
2019-06-08T00:23:08.939Z,1004.10
2019-06-08T00:23:44.254Z,1004.19
2019-06-08T00:24:19.878Z,1004.16
2019-06-08T00:24:55.078Z,1004.21
2019-06-08T00:25:30.716Z,1004.21
2019-06-08T00:26:06.290Z,1004.16
2019-06-08T00:26:42.026Z,1004.22
2019-06-08T00:27:20.175Z,1004.13
2019-06-08T00:27:52.835Z,1004.22
2019-06-08T00:28:28.163Z,1004.19
2019-06-08T00:29:03.212Z,1004.15
2019-06-08T00:29:38.589Z,1004.19
2019-06-08T00:30:14.048Z,1004.29
2019-06-08T00:30:49.626Z,1004.40
2019-06-08T00:31:24.988Z,1004.19
2019-06-08T00:32:00.654Z,1004.26
2019-06-08T00:32:35.990Z,1004.33
2019-06-08T00:33:11.574Z,1004.22
2019-06-08T00:33:47.044Z,1004.20
2019-06-08T00:34:22.823Z,1004.18
2019-06-08T00:34:58.078Z,1004.22
2019-06-08T00:35:33.160Z,1004.15
2019-06-08T00:36:08.494Z,1004.25
2019-06-08T00:36:44.193Z,1004.10
2019-06-08T00:37:20.796Z,1004.15
2019-06-08T00:37:55.011Z,1004.16
2019-06-08T00:38:30.487Z,1004.09
2019-06-08T00:39:06.169Z,1004.14
2019-06-08T00:39:41.517Z,1004.14
2019-06-08T00:40:16.925Z,1004.06
2019-06-08T00:40:52.286Z,1004.05
2019-06-08T00:41:27.753Z,1004.05
2019-06-08T00:42:03.093Z,1003.99
2019-06-08T00:42:38.506Z,1004.03
2019-06-08T00:43:15.036Z,1004.05
2019-06-08T00:43:48.954Z,1003.99
2019-06-08T00:44:25.478Z,1004.03
2019-06-08T00:44:59.765Z,1004.13
2019-06-08T00:45:35.095Z,1003.99
2019-06-08T00:46:10.463Z,1004.05
2019-06-08T00:46:45.999Z,1004.05
2019-06-08T00:47:22.587Z,1004.09
2019-06-08T00:47:56.825Z,1004.08
2019-06-08T00:48:32.443Z,1004.11
2019-06-08T00:49:07.894Z,1003.95
2019-06-08T00:49:43.262Z,1004.10
2019-06-08T00:50:18.765Z,1004.17
2019-06-08T00:50:53.996Z,1004.19
2019-06-08T00:51:29.795Z,1004.08
2019-06-08T00:52:05.119Z,1004.15
2019-06-08T00:52:40.366Z,1004.20
2019-06-08T00:53:16.969Z,1004.15
2019-06-08T00:53:51.225Z,1004.22
2019-06-08T00:54:26.898Z,1004.27
2019-06-08T00:55:02.352Z,1004.30
2019-06-08T00:55:37.722Z,1004.25
2019-06-08T00:56:13.181Z,1004.28
2019-06-08T00:56:48.773Z,1004.26
2019-06-08T00:57:24.086Z,1004.31
2019-06-08T00:57:59.467Z,1004.36
2019-06-08T00:58:35.242Z,1004.25
2019-06-08T00:59:10.532Z,1004.25
2019-06-08T00:59:45.766Z,1004.21
2019-06-08T01:00:22.389Z,1004.31
2019-06-08T01:00:56.909Z,1004.29
2019-06-08T01:01:32.291Z,1004.33
2019-06-08T01:02:07.836Z,1004.28
2019-06-08T01:02:43.611Z,1004.29
2019-06-08T01:03:19.593Z,1004.33
2019-06-08T01:03:54.589Z,1004.29
2019-06-08T01:04:29.926Z,1004.30
2019-06-08T01:05:05.501Z,1004.21
2019-06-08T01:05:41.345Z,1004.22
2019-06-08T01:06:16.723Z,1004.29
2019-06-08T01:06:52.056Z,1004.26
2019-06-08T01:07:27.668Z,1004.27
2019-06-08T01:08:03.148Z,1004.33
2019-06-08T01:08:38.540Z,1004.39
2019-06-08T01:09:14.177Z,1004.30
2019-06-08T01:09:49.660Z,1004.51
2019-06-08T01:10:25.575Z,1004.28
2019-06-08T01:11:00.466Z,1004.30
2019-06-08T01:11:35.719Z,1004.39
2019-06-08T01:12:11.045Z,1004.37
2019-06-08T01:12:46.564Z,1004.27
2019-06-08T01:13:22.804Z,1004.41
2019-06-08T01:13:56.933Z,1004.31
2019-06-08T01:14:32.716Z,1004.37
2019-06-08T01:15:08.655Z,1004.35
2019-06-08T01:15:43.833Z,1004.47
2019-06-08T01:16:19.379Z,1004.32
2019-06-08T01:16:54.674Z,1004.42
2019-06-08T01:17:30.009Z,1004.42
2019-06-08T01:18:05.283Z,1004.42
2019-06-08T01:18:40.659Z,1004.41
2019-06-08T01:19:16.045Z,1004.45
2019-06-08T01:19:51.382Z,1004.54
2019-06-08T01:20:27.509Z,1004.51
2019-06-08T01:21:02.519Z,1004.44
2019-06-08T01:21:37.896Z,1004.47
2019-06-08T01:22:13.643Z,1004.45
2019-06-08T01:22:49.321Z,1004.46
2019-06-08T01:23:25.549Z,1004.57
2019-06-08T01:24:00.691Z,1004.49
2019-06-08T01:24:36.228Z,1004.48
2019-06-08T01:25:11.621Z,1004.46
2019-06-08T01:25:46.861Z,1004.38
2019-06-08T01:26:22.247Z,1004.46
2019-06-08T01:26:57.585Z,1004.45
2019-06-08T01:27:32.758Z,1004.50
2019-06-08T01:28:08.113Z,1004.48
2019-06-08T01:28:43.625Z,1004.46
2019-06-08T01:29:20.079Z,1004.56
2019-06-08T01:29:54.348Z,1004.47
2019-06-08T01:30:30.439Z,1004.58
2019-06-08T01:31:05.776Z,1004.50
2019-06-08T01:31:41.017Z,1004.39
2019-06-08T01:32:16.292Z,1004.42
2019-06-08T01:32:52.128Z,1004.47
2019-06-08T01:33:28.718Z,1004.40
2019-06-08T01:34:03.183Z,1004.49
2019-06-08T01:34:38.663Z,1004.40
2019-06-08T01:35:14.005Z,1004.43
2019-06-08T01:35:49.384Z,1004.42
2019-06-08T01:36:25.120Z,1004.47
2019-06-08T01:37:00.398Z,1004.47
2019-06-08T01:37:35.928Z,1004.39
2019-06-08T01:38:11.412Z,1004.48
2019-06-08T01:38:46.883Z,1004.43
2019-06-08T01:39:23.034Z,1004.49
2019-06-08T01:39:57.921Z,1004.50
2019-06-08T01:40:33.398Z,1004.48
2019-06-08T01:41:08.837Z,1004.50
2019-06-08T01:41:44.411Z,1004.53
2019-06-08T01:42:19.849Z,1004.49
2019-06-08T01:42:55.343Z,1004.49
2019-06-08T01:43:31.696Z,1004.49
2019-06-08T01:44:06.010Z,1004.45
2019-06-08T01:44:41.335Z,1004.49
2019-06-08T01:45:16.903Z,1004.53
2019-06-08T01:45:52.350Z,1004.60
2019-06-08T01:46:28.258Z,1004.57
2019-06-08T01:47:02.870Z,1004.52
2019-06-08T01:47:38.369Z,1004.51
2019-06-08T01:48:20.089Z,1004.64
2019-06-08T01:48:49.726Z,1004.52
2019-06-08T01:49:26.095Z,1004.56
2019-06-08T01:50:00.852Z,1004.55
2019-06-08T01:50:36.285Z,1004.55
2019-06-08T01:51:11.772Z,1004.50
2019-06-08T01:51:47.216Z,1004.56
2019-06-08T01:52:22.713Z,1004.54
2019-06-08T01:52:58.058Z,1004.61
2019-06-08T01:53:33.672Z,1004.46
2019-06-08T01:54:08.911Z,1004.49
2019-06-08T01:54:44.181Z,1004.52
2019-06-08T01:55:19.527Z,1004.54
2019-06-08T01:55:54.795Z,1004.48
2019-06-08T01:56:31.234Z,1004.43
2019-06-08T01:57:05.535Z,1004.51
2019-06-08T01:57:40.972Z,1004.50
2019-06-08T01:58:16.561Z,1004.49
2019-06-08T01:58:52.039Z,1004.48
2019-06-08T01:59:27.634Z,1004.51
2019-06-08T02:00:28.849Z,1004.55
2019-06-08T02:00:41.481Z,1004.57
2019-06-08T02:01:13.794Z,1004.53
2019-06-08T02:01:49.271Z,1004.46
2019-06-08T02:02:25.879Z,1004.50
2019-06-08T02:03:00.259Z,1004.55
2019-06-08T02:03:35.347Z,1004.50
2019-06-08T02:04:10.809Z,1004.53
2019-06-08T02:04:46.048Z,1004.41
2019-06-08T02:05:21.537Z,1004.37
2019-06-08T02:05:56.878Z,1004.57
2019-06-08T02:06:32.466Z,1004.49
2019-06-08T02:07:07.613Z,1004.53
2019-06-08T02:07:43.015Z,1004.46
2019-06-08T02:08:18.364Z,1004.59
2019-06-08T02:08:53.875Z,1004.50
2019-06-08T02:09:30.587Z,1004.59
2019-06-08T02:10:04.715Z,1004.41
2019-06-08T02:10:40.064Z,1004.47
2019-06-08T02:11:15.226Z,1004.50
2019-06-08T02:11:50.573Z,1004.54
2019-06-08T02:12:26.673Z,1004.60
2019-06-08T02:13:01.481Z,1004.56
2019-06-08T02:13:36.999Z,1004.52
2019-06-08T02:14:12.546Z,1004.55
2019-06-08T02:14:48.019Z,1004.49
2019-06-08T02:15:25.069Z,1004.55
2019-06-08T02:15:59.063Z,1004.51
2019-06-08T02:16:35.348Z,1004.52
2019-06-08T02:17:09.604Z,1004.56
2019-06-08T02:17:45.251Z,1004.56
2019-06-08T02:18:35.542Z,1004.58
2019-06-08T02:18:55.803Z,1004.51
2019-06-08T02:19:31.198Z,1004.51
2019-06-08T02:20:06.627Z,1004.53
2019-06-08T02:20:41.905Z,1004.55
2019-06-08T02:21:17.456Z,1004.62
2019-06-08T02:21:53.128Z,1004.60
2019-06-08T02:22:28.850Z,1004.55
2019-06-08T02:23:03.983Z,1004.58
2019-06-08T02:23:39.701Z,1004.60
2019-06-08T02:24:14.740Z,1004.57
2019-06-08T02:24:49.970Z,1004.63
2019-06-08T02:25:25.555Z,1004.63
2019-06-08T02:26:01.190Z,1004.62
2019-06-08T02:26:36.565Z,1004.57
2019-06-08T02:27:12.021Z,1004.67
2019-06-08T02:27:47.603Z,1004.58
2019-06-08T02:28:22.647Z,1004.62
2019-06-08T02:28:57.960Z,1004.63
2019-06-08T02:29:33.724Z,1004.64
2019-06-08T02:30:08.578Z,1004.62
2019-06-08T02:30:44.111Z,1004.70
2019-06-08T02:31:19.592Z,1004.63
2019-06-08T02:31:55.134Z,1004.64
2019-06-08T02:32:31.547Z,1004.86
2019-06-08T02:33:06.193Z,1004.61
2019-06-08T02:33:41.517Z,1004.62
2019-06-08T02:34:16.659Z,1004.69
2019-06-08T02:34:52.152Z,1004.61
2019-06-08T02:35:27.972Z,1004.62
2019-06-08T02:36:02.904Z,1004.65
2019-06-08T02:36:38.640Z,1004.66
2019-06-08T02:37:13.918Z,1004.76
2019-06-08T02:37:49.264Z,1004.71
2019-06-08T02:38:24.548Z,1004.70
2019-06-08T02:39:00.009Z,1004.66
2019-06-08T02:39:36.048Z,1004.80
2019-06-08T02:40:10.911Z,1004.73
2019-06-08T02:40:46.589Z,1004.83
2019-06-08T02:41:22.132Z,1004.70
2019-06-08T02:41:57.725Z,1004.63
2019-06-08T02:42:34.664Z,1004.84
2019-06-08T02:43:08.982Z,1004.71
2019-06-08T02:43:44.763Z,1004.71
2019-06-08T02:44:19.928Z,1004.68
2019-06-08T02:44:55.600Z,1004.75
2019-06-08T02:45:32.072Z,1004.72
2019-06-08T02:46:06.422Z,1004.76
2019-06-08T02:46:41.710Z,1004.70
2019-06-08T02:47:17.047Z,1004.71
2019-06-08T02:47:52.235Z,1004.85
2019-06-08T02:48:29.299Z,1004.84
2019-06-08T02:49:04.712Z,1004.72
2019-06-08T02:49:39.652Z,1004.88
2019-06-08T02:50:13.952Z,1004.77
2019-06-08T02:50:49.095Z,1004.80
2019-06-08T02:51:24.475Z,1004.83
2019-06-08T02:51:59.736Z,1004.82
2019-06-08T02:52:36.152Z,1004.84
2019-06-08T02:53:10.326Z,1004.79
2019-06-08T02:53:45.747Z,1004.84
2019-06-08T02:54:20.962Z,1004.83
2019-06-08T02:54:56.351Z,1004.86
2019-06-08T02:55:32.999Z,1004.93
2019-06-08T02:56:07.393Z,1004.90
2019-06-08T02:56:43.145Z,1004.81
2019-06-08T02:57:18.512Z,1004.85
2019-06-08T02:57:54.072Z,1004.83
2019-06-08T02:58:31.038Z,1004.90
2019-06-08T02:59:05.022Z,1004.96
2019-06-08T02:59:41.045Z,1005.00
2019-06-08T03:00:15.949Z,1004.95
2019-06-08T03:00:51.311Z,1004.91
2019-06-08T03:01:26.659Z,1004.89
2019-06-08T03:02:01.930Z,1004.88
2019-06-08T03:02:39.068Z,1004.97
2019-06-08T03:03:12.770Z,1004.88
2019-06-08T03:03:48.095Z,1004.77
2019-06-08T03:04:23.379Z,1005.00
2019-06-08T03:04:59.123Z,1004.93
2019-06-08T03:05:35.762Z,1004.97
2019-06-08T03:06:09.826Z,1004.96
2019-06-08T03:06:45.325Z,1004.87
2019-06-08T03:07:20.484Z,1004.98
2019-06-08T03:07:55.953Z,1004.99
2019-06-08T03:08:32.372Z,1004.94
2019-06-08T03:09:07.022Z,1004.98
2019-06-08T03:09:42.245Z,1004.95
2019-06-08T03:10:18.017Z,1004.84
2019-06-08T03:10:53.161Z,1005.03
2019-06-08T03:11:28.445Z,1004.92
2019-06-08T03:12:04.092Z,1005.10
2019-06-08T03:12:40.331Z,1004.91
2019-06-08T03:13:14.919Z,1005.01
2019-06-08T03:13:50.225Z,1005.02
2019-06-08T03:14:26.021Z,1005.12
2019-06-08T03:15:01.663Z,1005.10
2019-06-08T03:15:38.575Z,1005.13
2019-06-08T03:16:12.678Z,1005.03
2019-06-08T03:16:48.107Z,1005.15
2019-06-08T03:17:23.681Z,1005.34
2019-06-08T03:17:59.034Z,1005.23
2019-06-08T03:18:35.682Z,1005.26
2019-06-08T03:19:20.902Z,1005.15
2019-06-08T03:19:45.280Z,1005.17
2019-06-08T03:20:20.925Z,1005.17
2019-06-08T03:20:56.316Z,1005.23
2019-06-08T03:21:31.674Z,1005.24
2019-06-08T03:22:10.645Z,1005.26
2019-06-08T03:22:43.973Z,1005.20
2019-06-08T03:23:18.391Z,1005.27
2019-06-08T03:23:53.558Z,1005.25
2019-06-08T03:24:28.941Z,1005.24
2019-06-08T03:25:04.280Z,1005.30
2019-06-08T03:25:47.358Z,1005.29
2019-06-08T03:26:15.328Z,1005.29
2019-06-08T03:26:50.932Z,1005.24
2019-06-08T03:27:26.398Z,1005.32
2019-06-08T03:28:01.587Z,1005.24
2019-06-08T03:28:37.354Z,1005.28
2019-06-08T03:29:12.451Z,1005.18
2019-06-08T03:29:47.887Z,1005.30
2019-06-08T03:30:23.603Z,1005.31
2019-06-08T03:30:58.811Z,1005.35
2019-06-08T03:31:36.147Z,1005.37
2019-06-08T03:32:09.864Z,1005.34
2019-06-08T03:32:53.998Z,1005.37
2019-06-08T03:33:20.560Z,1005.47
2019-06-08T03:33:56.724Z,1005.39
2019-06-08T03:34:31.108Z,1005.40
2019-06-08T03:35:06.598Z,1005.48
2019-06-08T03:35:52.696Z,1005.37
2019-06-08T03:36:17.118Z,1005.42
2019-06-08T03:36:56.576Z,1005.43
2019-06-08T03:37:27.671Z,1005.48
2019-06-08T03:38:02.917Z,1005.45
2019-06-08T03:38:39.906Z,1005.48
2019-06-08T03:39:13.785Z,1005.62
2019-06-08T03:39:49.260Z,1005.57
2019-06-08T03:40:24.615Z,1005.45
2019-06-08T03:41:00.092Z,1005.57
2019-06-08T03:41:36.249Z,1005.50
2019-06-08T03:42:11.156Z,1005.45
2019-06-08T03:42:46.277Z,1005.58
2019-06-08T03:43:21.541Z,1005.51
2019-06-08T03:43:56.512Z,1005.51
2019-06-08T03:44:31.997Z,1005.68
2019-06-08T03:45:07.451Z,1005.55
2019-06-08T03:45:43.132Z,1005.63
2019-06-08T03:46:17.969Z,1005.58
2019-06-08T03:46:53.458Z,1005.68
2019-06-08T03:47:28.803Z,1005.58
2019-06-08T03:48:04.695Z,1005.60
2019-06-08T03:48:41.637Z,1005.56
2019-06-08T03:49:15.540Z,1005.48
2019-06-08T03:49:56.369Z,1005.84
2019-06-08T03:50:25.962Z,1005.57
2019-06-08T03:51:01.298Z,1005.95
2019-06-08T03:51:40.273Z,1005.71
2019-06-08T03:52:11.623Z,1005.52
2019-06-08T03:52:46.805Z,1005.67
2019-06-08T03:53:22.237Z,1005.65
2019-06-08T03:53:57.653Z,1005.62
2019-06-08T03:54:33.289Z,1005.66
2019-06-08T03:55:08.870Z,1005.59
2019-06-08T03:55:45.456Z,1005.55
2019-06-08T03:56:19.725Z,1005.59
2019-06-08T03:56:55.474Z,1005.66
2019-06-08T03:57:31.038Z,1005.77
2019-06-08T03:58:06.471Z,1005.68
2019-06-08T03:58:42.900Z,1005.73
2019-06-08T03:59:17.121Z,1005.66
2019-06-08T03:59:52.597Z,1005.68
2019-06-08T04:00:27.852Z,1005.90
2019-06-08T04:01:03.272Z,1005.66
2019-06-08T04:01:39.792Z,1006.01
2019-06-08T04:02:14.470Z,1005.82
2019-06-08T04:02:50.249Z,1005.71
2019-06-08T04:03:25.014Z,1005.76
2019-06-08T04:04:00.596Z,1005.83
2019-06-08T04:04:37.742Z,1005.84
2019-06-08T04:05:11.214Z,1005.81
2019-06-08T04:05:46.700Z,1005.74
2019-06-08T04:06:21.749Z,1005.66
2019-06-08T04:06:57.022Z,1005.75
2019-06-08T04:07:32.386Z,1005.85
2019-06-08T04:08:07.942Z,1005.72
2019-06-08T04:08:45.380Z,1005.75
2019-06-08T04:09:18.416Z,1005.73
2019-06-08T04:09:53.641Z,1005.68
2019-06-08T04:10:28.934Z,1005.81
2019-06-08T04:11:04.472Z,1005.62
2019-06-08T04:11:40.112Z,1005.71
2019-06-08T04:12:15.100Z,1005.75
2019-06-08T04:12:50.588Z,1005.86
2019-06-08T04:13:26.228Z,1005.76
2019-06-08T04:14:01.742Z,1005.69
2019-06-08T04:14:37.853Z,1005.91
2019-06-08T04:15:12.930Z,1005.74
2019-06-08T04:15:50.186Z,1005.77
2019-06-08T04:16:23.934Z,1005.74
2019-06-08T04:16:59.479Z,1005.83
2019-06-08T04:17:34.679Z,1005.81
2019-06-08T04:18:10.104Z,1005.77
2019-06-08T04:18:46.791Z,1005.68
2019-06-08T04:19:21.064Z,1005.78
2019-06-08T04:20:10.115Z,1005.78
2019-06-08T04:20:32.286Z,1005.70
2019-06-08T04:21:07.660Z,1005.72
2019-06-08T04:21:44.325Z,1005.70
2019-06-08T04:22:19.170Z,1005.77
2019-06-08T04:22:54.638Z,1005.76
2019-06-08T04:23:30.252Z,1005.83
2019-06-08T04:24:05.778Z,1005.83
2019-06-08T04:24:42.422Z,1005.78
2019-06-08T04:25:16.794Z,1005.79
2019-06-08T04:25:52.473Z,1005.86
2019-06-08T04:26:27.806Z,1006.03
2019-06-08T04:27:03.280Z,1005.84
2019-06-08T04:27:40.014Z,1005.73
2019-06-08T04:28:14.294Z,1005.78
2019-06-08T04:28:49.674Z,1005.86
2019-06-08T04:29:25.155Z,1005.83
2019-06-08T04:30:00.294Z,1005.81
2019-06-08T04:30:35.771Z,1005.86
2019-06-08T04:31:11.008Z,1005.79
2019-06-08T04:31:46.477Z,1005.82
2019-06-08T04:32:21.733Z,1005.84
2019-06-08T04:32:57.314Z,1005.86
2019-06-08T04:33:32.603Z,1005.83
2019-06-08T04:34:08.205Z,1005.82
2019-06-08T04:34:45.357Z,1005.87
2019-06-08T04:35:19.056Z,1005.89
2019-06-08T04:35:54.785Z,1005.89
2019-06-08T04:36:30.378Z,1005.90
2019-06-08T04:37:06.024Z,1005.87
2019-06-08T04:37:42.663Z,1005.85
2019-06-08T04:38:17.064Z,1005.88
2019-06-08T04:38:52.377Z,1005.89
2019-06-08T04:39:27.825Z,1005.97
2019-06-08T04:40:03.217Z,1005.93
2019-06-08T04:40:39.513Z,1006.01
2019-06-08T04:41:13.746Z,1005.91
2019-06-08T04:41:50.915Z,1005.91
2019-06-08T04:42:24.878Z,1005.97
2019-06-08T04:43:00.374Z,1006.00
2019-06-08T04:43:36.096Z,1006.00
2019-06-08T04:44:11.337Z,1006.15
2019-06-08T04:44:46.928Z,1005.92
2019-06-08T04:45:21.872Z,1005.98
2019-06-08T04:45:57.471Z,1005.97
2019-06-08T04:46:33.100Z,1005.99
2019-06-08T04:47:08.477Z,1006.06
2019-06-08T04:47:45.383Z,1006.02
2019-06-08T04:48:19.429Z,1005.99
2019-06-08T04:48:54.627Z,1005.97
2019-06-08T04:49:30.009Z,1006.15
2019-06-08T04:50:20.798Z,1006.21
2019-06-08T04:50:42.777Z,1006.12
2019-06-08T04:51:16.480Z,1006.12
2019-06-08T04:51:51.969Z,1006.17
2019-06-08T04:52:27.604Z,1006.10
2019-06-08T04:53:02.996Z,1006.13
2019-06-08T04:53:40.714Z,1006.11
2019-06-08T04:54:14.653Z,1006.22
2019-06-08T04:54:49.768Z,1006.18
2019-06-08T04:55:24.789Z,1006.21
2019-06-08T04:56:00.026Z,1006.27
2019-06-08T04:56:35.496Z,1006.23
2019-06-08T04:57:10.946Z,1006.24
2019-06-08T04:57:48.157Z,1006.31
2019-06-08T04:58:21.682Z,1006.42
2019-06-08T04:58:57.222Z,1006.18
2019-06-08T04:59:32.669Z,1006.14
2019-06-08T05:00:11.819Z,1006.23
2019-06-08T05:00:45.111Z,1006.50
2019-06-08T05:01:18.851Z,1006.11
2019-06-08T05:01:54.301Z,1006.20
2019-06-08T05:02:29.996Z,1006.13
2019-06-08T05:03:05.268Z,1006.20
2019-06-08T05:03:41.392Z,1006.22
2019-06-08T05:04:16.252Z,1006.21
2019-06-08T05:04:51.735Z,1006.20
2019-06-08T05:05:27.274Z,1006.28
2019-06-08T05:06:02.753Z,1006.22
2019-06-08T05:06:39.043Z,1006.44
2019-06-08T05:07:13.767Z,1006.34
2019-06-08T05:07:50.359Z,1006.43
2019-06-08T05:08:24.550Z,1006.29
2019-06-08T05:09:00.114Z,1006.26
2019-06-08T05:09:35.730Z,1006.31
2019-06-08T05:10:10.973Z,1006.40
2019-06-08T05:10:47.410Z,1006.26
2019-06-08T05:11:21.806Z,1006.27
2019-06-08T05:11:57.298Z,1006.09
2019-06-08T05:12:32.753Z,1006.32
2019-06-08T05:13:08.217Z,1006.22
2019-06-08T05:13:43.461Z,1006.25
2019-06-08T05:14:18.588Z,1006.32
2019-06-08T05:14:53.925Z,1006.29
2019-06-08T05:15:29.318Z,1006.34
2019-06-08T05:16:04.762Z,1006.36
2019-06-08T05:16:41.237Z,1006.35
2019-06-08T05:17:15.480Z,1006.27
2019-06-08T05:17:50.877Z,1006.32
2019-06-08T05:18:26.169Z,1006.42
2019-06-08T05:19:01.532Z,1006.63
2019-06-08T05:19:37.011Z,1006.36
2019-06-08T05:20:12.427Z,1006.24
2019-06-08T05:20:49.333Z,1006.63
2019-06-08T05:21:23.255Z,1006.51
2019-06-08T05:21:58.793Z,1006.36
2019-06-08T05:22:34.194Z,1006.31
2019-06-08T05:23:09.342Z,1006.47
2019-06-08T05:23:45.575Z,1006.46
2019-06-08T05:24:20.009Z,1006.43
2019-06-08T05:24:55.685Z,1006.45
2019-06-08T05:25:31.244Z,1006.47
2019-06-08T05:26:06.532Z,1006.34
2019-06-08T05:26:42.390Z,1006.36
2019-06-08T05:27:17.569Z,1006.51
2019-06-08T05:27:52.906Z,1006.37
2019-06-08T05:28:28.315Z,1006.43
2019-06-08T05:29:04.054Z,1006.32
2019-06-08T05:29:39.345Z,1006.35
2019-06-08T05:30:14.797Z,1006.46
2019-06-08T05:30:50.175Z,1006.42
2019-06-08T05:31:25.669Z,1006.38
2019-06-08T05:32:01.224Z,1006.41
2019-06-08T05:32:37.075Z,1006.52
2019-06-08T05:33:12.705Z,1006.40
2019-06-08T05:33:49.545Z,1006.51
2019-06-08T05:34:23.865Z,1006.36
2019-06-08T05:34:59.524Z,1006.36
2019-06-08T05:35:35.207Z,1006.35
2019-06-08T05:36:10.999Z,1006.45
2019-06-08T05:36:47.540Z,1006.44
2019-06-08T05:37:21.884Z,1006.48
2019-06-08T05:37:57.078Z,1006.41
2019-06-08T05:38:32.666Z,1006.43
2019-06-08T05:39:08.151Z,1006.40
2019-06-08T05:39:43.584Z,1006.42
2019-06-08T05:40:18.915Z,1006.42
2019-06-08T05:40:54.454Z,1006.38
2019-06-08T05:41:29.955Z,1006.40
2019-06-08T05:42:05.298Z,1006.89
2019-06-08T05:42:42.403Z,1006.67
2019-06-08T05:43:16.151Z,1006.49
2019-06-08T05:43:51.578Z,1006.56
2019-06-08T05:44:27.240Z,1006.38
2019-06-08T05:45:02.719Z,1006.43
2019-06-08T05:45:39.514Z,1006.43
2019-06-08T05:46:13.744Z,1006.47
2019-06-08T05:46:50.028Z,1006.53
2019-06-08T05:47:24.667Z,1006.53
2019-06-08T05:48:00.009Z,1006.49
2019-06-08T05:48:35.453Z,1006.45
2019-06-08T05:49:10.605Z,1006.50
2019-06-08T05:49:46.007Z,1006.48
2019-06-08T05:50:21.448Z,1006.49
2019-06-08T05:51:03.611Z,1006.51
2019-06-08T05:51:32.275Z,1006.62
2019-06-08T05:52:08.183Z,1006.45
2019-06-08T05:52:44.151Z,1006.48
2019-06-08T05:53:19.429Z,1006.50
2019-06-08T05:53:54.899Z,1006.54
2019-06-08T05:54:30.569Z,1006.53
2019-06-08T05:55:05.912Z,1006.57
2019-06-08T05:55:41.695Z,1006.61
2019-06-08T05:56:16.539Z,1006.54
2019-06-08T05:56:52.039Z,1006.60
2019-06-08T05:57:38.157Z,1006.63
2019-06-08T05:58:14.245Z,1006.64
2019-06-08T06:49:50.683Z,1007.65
2019-06-08T06:50:26.606Z,1007.58
2019-06-08T06:51:02.261Z,1007.64
2019-06-08T06:51:37.410Z,1007.62
2019-06-08T06:52:12.762Z,1007.71
2019-06-08T06:52:48.933Z,1007.58
2019-06-08T06:53:23.524Z,1007.60
2019-06-08T06:53:59.099Z,1007.70
2019-06-08T06:54:34.637Z,1007.64
2019-06-08T06:55:10.267Z,1007.65
2019-06-08T06:55:46.837Z,1007.83
2019-06-08T06:56:21.176Z,1007.69
2019-06-08T06:56:56.611Z,1007.72
2019-06-08T06:57:33.818Z,1007.71
2019-06-08T06:58:07.182Z,1007.69
2019-06-08T06:58:43.069Z,1007.88
2019-06-08T06:59:17.778Z,1007.88
2019-06-08T06:59:54.043Z,1007.82
2019-06-08T07:00:28.363Z,1007.68
2019-06-08T07:01:04.156Z,1007.99
2019-06-08T07:01:39.483Z,1007.81
2019-06-08T07:02:14.650Z,1007.85
2019-06-08T07:02:50.143Z,1007.89
2019-06-08T07:03:25.719Z,1007.97
2019-06-08T07:04:01.046Z,1007.90
2019-06-08T07:04:36.442Z,1007.86
2019-06-08T07:05:11.778Z,1007.83
2019-06-08T07:05:47.839Z,1007.95
2019-06-08T07:06:22.779Z,1007.95
2019-06-08T07:06:59.032Z,1007.94
2019-06-08T07:07:34.357Z,1007.95
2019-06-08T07:08:09.780Z,1007.95
2019-06-08T07:08:46.153Z,1007.95
2019-06-08T07:09:20.822Z,1007.95
2019-06-08T07:09:56.087Z,1008.01
2019-06-08T07:10:31.560Z,1008.08
2019-06-08T07:11:07.064Z,1008.03
2019-06-08T07:11:42.247Z,1008.12
2019-06-08T07:12:17.862Z,1007.99
2019-06-08T07:12:53.237Z,1008.05
2019-06-08T07:13:28.711Z,1007.96
2019-06-08T07:14:04.480Z,1008.08
2019-06-08T07:14:39.915Z,1008.06
2019-06-08T07:15:15.489Z,1008.07
2019-06-08T07:15:54.438Z,1008.05
2019-06-08T07:16:26.212Z,1008.05
2019-06-08T07:17:01.446Z,1008.16
2019-06-08T07:17:37.113Z,1008.06
2019-06-08T07:18:12.374Z,1008.09
2019-06-08T07:18:48.202Z,1008.10
2019-06-08T07:19:22.886Z,1008.12
2019-06-08T07:19:58.901Z,1008.09
2019-06-08T07:20:33.905Z,1008.21
2019-06-08T07:21:09.484Z,1008.12
2019-06-08T07:21:46.038Z,1008.20
2019-06-08T07:22:20.107Z,1008.09
2019-06-08T07:22:55.456Z,1008.14
2019-06-08T07:23:31.063Z,1008.20
2019-06-08T07:24:06.698Z,1008.17
2019-06-08T07:24:41.964Z,1008.16
2019-06-08T07:25:17.248Z,1008.30
2019-06-08T07:25:52.972Z,1008.24
2019-06-08T07:26:28.083Z,1008.22
2019-06-08T07:27:03.459Z,1008.26
2019-06-08T07:27:39.109Z,1008.25
2019-06-08T07:28:14.783Z,1008.26
2019-06-08T07:28:51.845Z,1008.30
2019-06-08T07:29:25.850Z,1008.26
2019-06-08T07:30:01.297Z,1008.30
2019-06-08T07:30:36.757Z,1008.37
2019-06-08T07:31:12.208Z,1008.31
2019-06-08T07:31:48.615Z,1008.32
2019-06-08T07:32:23.143Z,1008.41
2019-06-08T07:32:59.196Z,1008.36
2019-06-08T07:33:33.593Z,1008.34
2019-06-08T07:34:08.952Z,1008.30
2019-06-08T07:34:44.292Z,1008.37
2019-06-08T07:35:19.778Z,1008.42
2019-06-08T07:35:55.349Z,1008.32
2019-06-08T07:36:30.605Z,1008.33
2019-06-08T07:37:06.076Z,1008.48
2019-06-08T07:37:41.542Z,1008.31
2019-06-08T07:38:17.098Z,1008.41
2019-06-08T07:38:53.360Z,1008.47
2019-06-08T07:39:28.068Z,1008.43
2019-06-08T07:40:03.570Z,1008.47
2019-06-08T07:40:39.106Z,1008.50
2019-06-08T07:41:14.503Z,1008.51
2019-06-08T07:41:50.228Z,1008.50
2019-06-08T07:42:25.514Z,1008.44
2019-06-08T07:43:00.746Z,1008.67
2019-06-08T07:43:35.980Z,1008.51
2019-06-08T07:44:11.413Z,1008.56
2019-06-08T07:44:46.820Z,1008.56
2019-06-08T07:45:22.528Z,1008.54
2019-06-08T07:45:58.424Z,1008.56
2019-06-08T07:46:33.329Z,1008.54
2019-06-08T07:47:08.784Z,1008.59
2019-06-08T07:47:44.027Z,1008.61
2019-06-08T07:48:19.401Z,1008.59
2019-06-08T07:48:54.687Z,1008.51
2019-06-08T07:49:29.861Z,1008.53
2019-06-08T07:50:05.206Z,1008.55
2019-06-08T07:50:40.570Z,1008.60
2019-06-08T07:51:15.809Z,1008.60
2019-06-08T07:52:02.486Z,1008.48
2019-06-08T07:52:27.033Z,1008.65
2019-06-08T07:53:02.403Z,1008.59
2019-06-08T07:53:37.724Z,1008.57
2019-06-08T07:54:13.420Z,1008.61
2019-06-08T07:54:49.474Z,1008.57
2019-06-08T07:55:23.942Z,1008.68
2019-06-08T07:55:59.803Z,1008.70
2019-06-08T07:56:34.159Z,1008.86
2019-06-08T07:57:09.510Z,1008.64
2019-06-08T07:57:44.968Z,1008.62
2019-06-08T07:58:20.312Z,1008.73
2019-06-08T07:58:57.053Z,1008.60
2019-06-08T07:59:31.493Z,1008.72